Loughman, Florida
Current Conditions -  °F | °C
As of 9:50 PM on Saturday 25 Oct 2014 (Local Time) from KISM Reporting Station
Clear Clear  
Wind Chill: 70°   Ceiling: Unl
Heat Index: 70°   Visibility: 10mi
Dew Point: 59°   Wind: 5mph
Humidity: 68%   Direction: 50°NE
Pressure: 30"   Gusts: NA
Location:  28.24°N, 81.57°W
Report Text: KISM 260150Z 05004KT 10SM SKC 21/15 A3000 RMK LAST
Loading
Personal Weather Stations






























Interactive Weather Map
Tropical Storm Tracking
New forecast layout! Learn more

10-Day Weather Forecast

Advertisements
Track Severe Weather on mobile